Time,TemperatureF,DewpointF,PressureIn,WindDirection,WindDirectionDegrees,WindSpeedMPH,WindSpeedGustMPH,Humidity,HourlyPrecipIn,Conditions,Clouds,dailyrainin,SoftwareType,DateUTC
2013-08-13 00:13:00,82.0,76.0,30.00,SSW,196,5.0,-999.0,81,-99.99,,,-99.99,,2013-08-13 04:13:00,
2013-08-13 00:23:00,82.0,76.0,30.00,South,184,4.0,-999.0,82,-99.99,,,-99.99,,2013-08-13 04:23:00,
2013-08-13 00:42:00,82.0,76.0,29.99,South,188,3.0,-999.0,82,-99.99,,,-99.99,,2013-08-13 04:42:00,
2013-08-13 00:53:00,82.0,76.0,30.00,SW,214,4.0,-999.0,82,-99.99,,,-99.99,,2013-08-13 04:53:00,
2013-08-13 01:12:00,82.0,76.0,30.00,SW,232,4.0,-999.0,82,-99.99,,,-99.99,,2013-08-13 05:12:00,
2013-08-13 01:21:00,82.0,77.0,30.00,South,190,3.0,-999.0,84,-99.99,,,-99.99,,2013-08-13 05:21:00,
2013-08-13 01:52:00,82.0,76.0,29.99,South,188,4.0,-999.0,83,-99.99,,,-99.99,,2013-08-13 05:52:00,
2013-08-13 02:11:00,82.0,76.0,29.99,SW,221,4.0,-999.0,83,-99.99,,,-99.99,,2013-08-13 06:11:00,
2013-08-13 02:21:00,82.0,77.0,29.99,SSW,198,4.0,-999.0,84,-99.99,,,-99.99,,2013-08-13 06:21:00,
2013-08-13 02:42:00,82.0,77.0,29.99,South,182,4.0,-999.0,86,-99.99,,,-99.99,,2013-08-13 06:42:00,
2013-08-13 02:52:00,82.0,77.0,29.98,WNW,298,4.0,-999.0,86,-99.99,,,-99.99,,2013-08-13 06:52:00,
2013-08-13 03:12:00,82.0,77.0,29.98,South,188,5.0,-999.0,85,-99.99,,,-99.99,,2013-08-13 07:12:00,
2013-08-13 03:21:00,82.0,77.0,29.97,WSW,246,4.0,-999.0,86,-99.99,,,-99.99,,2013-08-13 07:21:00,
2013-08-13 03:42:00,82.0,78.0,29.97,SSE,157,4.0,-999.0,87,-99.99,,,-99.99,,2013-08-13 07:42:00,
2013-08-13 03:52:00,82.0,78.0,29.96,SW,218,3.0,-999.0,88,-99.99,,,-99.99,,2013-08-13 07:52:00,
2013-08-13 04:11:00,82.0,78.0,29.96,SSW,202,3.0,-999.0,88,-99.99,,,-99.99,,2013-08-13 08:11:00,
2013-08-13 04:22:00,82.0,78.0,29.97,WNW,286,4.0,-999.0,88,-99.99,,,-99.99,,2013-08-13 08:22:00,
2013-08-13 04:42:00,82.0,78.0,29.97,SSW,211,3.0,-999.0,88,-99.99,,,-99.99,,2013-08-13 08:42:00,
2013-08-13 04:52:00,82.0,78.0,29.97,SW,224,3.0,-999.0,88,-99.99,,,-99.99,,2013-08-13 08:52:00,
2013-08-13 05:11:00,81.0,77.0,29.97,SW,236,2.0,-999.0,87,-99.99,,,-99.99,,2013-08-13 09:11:00,
2013-08-13 05:22:00,81.0,77.0,29.97,SW,220,2.0,-999.0,87,-99.99,,,-99.99,,2013-08-13 09:22:00,
2013-08-13 05:43:00,81.0,76.0,29.97,West,265,2.0,-999.0,86,-99.99,,,-99.99,,2013-08-13 09:43:00,
2013-08-13 05:53:00,81.0,76.0,29.97,West,271,3.0,-999.0,85,-99.99,,,-99.99,,2013-08-13 09:53:00,
2013-08-13 06:12:00,81.0,76.0,29.97,WSW,246,3.0,-999.0,84,-99.99,,,-99.99,,2013-08-13 10:12:00,
2013-08-13 06:23:00,80.0,74.0,29.97,West,275,5.0,-999.0,81,-99.99,,,-99.99,,2013-08-13 10:23:00,
2013-08-13 06:42:00,80.0,74.0,29.97,NW,304,3.0,-999.0,83,-99.99,,,-99.99,,2013-08-13 10:42:00,
2013-08-13 06:52:00,79.0,75.0,29.97,WNW,288,2.0,-999.0,87,-99.99,,,-99.99,,2013-08-13 10:52:00,
2013-08-13 07:11:00,78.0,74.0,29.97,WNW,286,0.0,-999.0,89,-99.99,,,-99.99,,2013-08-13 11:11:00,
2013-08-13 07:22:00,78.0,75.0,29.97,WNW,286,0.0,-999.0,90,-99.99,,,-99.99,,2013-08-13 11:22:00,
2013-08-13 07:42:00,77.0,74.0,29.97,WNW,286,0.0,-999.0,90,-99.99,,,-99.99,,2013-08-13 11:42:00,
2013-08-13 07:52:00,77.0,74.0,29.97,WNW,286,0.0,-999.0,90,-99.99,,,-99.99,,2013-08-13 11:52:00,
2013-08-13 08:12:00,78.0,75.0,29.97,WNW,286,0.0,-999.0,91,-99.99,,,-99.99,,2013-08-13 12:12:00,
2013-08-13 08:21:00,78.0,75.0,29.97,SW,219,1.0,-999.0,90,-99.99,,,-99.99,,2013-08-13 12:21:00,
2013-08-13 08:42:00,80.0,77.0,29.97,SSW,195,1.0,-999.0,90,-99.99,,,-99.99,,2013-08-13 12:42:00,
2013-08-13 08:52:00,81.0,78.0,29.97,SW,216,1.0,-999.0,90,-99.99,,,-99.99,,2013-08-13 12:52:00,
2013-08-13 09:11:00,82.0,78.0,29.97,South,190,2.0,-999.0,89,-99.99,,,-99.99,,2013-08-13 13:11:00,
2013-08-13 09:22:00,83.0,79.0,29.97,SSW,192,3.0,-999.0,88,-99.99,,,-99.99,,2013-08-13 13:22:00,
2013-08-13 09:52:00,84.0,79.0,29.97,West,274,3.0,-999.0,85,-99.99,,,-99.99,,2013-08-13 13:52:00,
2013-08-13 10:11:00,84.0,79.0,29.97,SSW,211,4.0,-999.0,85,-99.99,,,-99.99,,2013-08-13 14:11:00,
2013-08-13 10:22:00,85.0,79.0,29.98,WSW,243,4.0,-999.0,82,-99.99,,,-99.99,,2013-08-13 14:22:00,
2013-08-13 10:42:00,86.0,79.0,29.97,SSW,208,3.0,-999.0,80,-99.99,,,-99.99,,2013-08-13 14:42:00,
2013-08-13 10:52:00,87.0,79.0,29.98,SSW,210,3.0,-999.0,77,-99.99,,,-99.99,,2013-08-13 14:52:00,
2013-08-13 11:11:00,88.0,79.0,29.98,West,271,2.0,-999.0,75,-99.99,,,-99.99,,2013-08-13 15:11:00,
2013-08-13 11:22:00,88.0,79.0,29.98,West,269,2.0,-999.0,74,-99.99,,,-99.99,,2013-08-13 15:22:00,
2013-08-13 11:44:00,89.0,79.0,29.98,WSW,257,3.0,-999.0,72,-99.99,,,-99.99,,2013-08-13 15:44:00,
2013-08-13 11:54:00,90.0,79.0,29.97,SSW,199,3.0,-999.0,71,-99.99,,,-99.99,,2013-08-13 15:54:00,
2013-08-13 12:13:00,90.0,78.0,29.98,SW,219,4.0,-999.0,67,-99.99,,,-99.99,,2013-08-13 16:13:00,
2013-08-13 12:23:00,91.0,77.0,29.97,WNW,292,5.0,-999.0,64,-99.99,,,-99.99,,2013-08-13 16:23:00,
2013-08-13 12:54:00,92.0,77.0,29.96,WSW,257,4.0,-999.0,62,-99.99,,,-99.99,,2013-08-13 16:54:00,
2013-08-13 13:16:00,92.0,78.0,29.95,SSW,200,5.0,-999.0,63,-99.99,,,-99.99,,2013-08-13 17:16:00,
2013-08-13 13:27:00,92.0,76.0,29.94,WSW,250,4.0,-999.0,60,-99.99,,,-99.99,,2013-08-13 17:27:00,
2013-08-13 13:46:00,-999.0,-99.9,29.94,South,190,5.0,-999.0,-999,-99.99,,,-99.99,,2013-08-13 17:46:00,
2013-08-13 13:56:00,92.0,77.0,29.93,SW,223,4.0,-999.0,61,-99.99,,,-99.99,,2013-08-13 17:56:00,
2013-08-13 14:15:00,93.0,75.0,29.93,South,184,3.0,-999.0,57,-99.99,,,-99.99,,2013-08-13 18:15:00,
2013-08-13 14:25:00,94.0,77.0,29.92,South,187,3.0,-999.0,58,-99.99,,,-99.99,,2013-08-13 18:25:00,
2013-08-13 14:44:00,92.0,80.0,29.91,SSW,202,6.0,-999.0,69,-99.99,,,-99.99,,2013-08-13 18:44:00,
2013-08-13 14:56:00,91.0,81.0,29.91,SSE,159,5.0,-999.0,73,-99.99,,,-99.99,,2013-08-13 18:56:00,
2013-08-13 15:14:00,91.0,79.0,29.91,SSW,206,4.0,-999.0,69,-99.99,,,-99.99,,2013-08-13 19:14:00,
2013-08-13 15:25:00,90.0,81.0,29.90,South,169,6.0,-999.0,74,-99.99,,,-99.99,,2013-08-13 19:25:00,
2013-08-13 15:44:00,91.0,80.0,29.90,South,171,7.0,-999.0,71,-99.99,,,-99.99,,2013-08-13 19:44:00,
2013-08-13 15:55:00,91.0,80.0,29.90,South,171,7.0,-999.0,71,-99.99,,,-99.99,,2013-08-13 19:55:00,
2013-08-13 16:15:00,91.0,80.0,29.89,SSW,192,7.0,-999.0,71,-99.99,,,-99.99,,2013-08-13 20:15:00,
2013-08-13 16:22:00,91.0,81.0,29.89,South,176,7.0,-999.0,72,-99.99,,,-99.99,,2013-08-13 20:22:00,
2013-08-13 16:53:00,90.0,80.0,29.88,SW,236,5.0,-999.0,72,-99.99,,,-99.99,,2013-08-13 20:53:00,
2013-08-13 17:11:00,91.0,81.0,29.88,SSW,209,5.0,-999.0,73,-99.99,,,-99.99,,2013-08-13 21:11:00,
2013-08-13 17:24:00,90.0,81.0,29.88,SSW,196,5.0,-999.0,74,-99.99,,,-99.99,,2013-08-13 21:24:00,
2013-08-13 17:46:00,90.0,81.0,29.88,SE,138,6.0,-999.0,74,-99.99,,,-99.99,,2013-08-13 21:46:00,
2013-08-13 17:54:00,89.0,80.0,29.88,SSW,201,6.0,-999.0,74,-99.99,,,-99.99,,2013-08-13 21:54:00,
2013-08-13 18:13:00,89.0,80.0,29.88,South,183,7.0,-999.0,75,-99.99,,,-99.99,,2013-08-13 22:13:00,
2013-08-13 18:23:00,89.0,80.0,29.88,ESE,112,6.0,-999.0,76,-99.99,,,-99.99,,2013-08-13 22:23:00,
2013-08-13 18:50:00,88.0,80.0,29.87,SSE,155,6.0,-999.0,77,-99.99,,,-99.99,,2013-08-13 22:50:00,
2013-08-13 18:57:00,88.0,80.0,29.86,SSW,199,5.0,-999.0,77,-99.99,,,-99.99,,2013-08-13 22:57:00,
2013-08-13 19:13:00,88.0,80.0,29.86,SW,228,5.0,-999.0,77,-99.99,,,-99.99,,2013-08-13 23:13:00,
2013-08-13 19:26:00,87.0,79.0,29.87,South,172,5.0,-999.0,78,-99.99,,,-99.99,,2013-08-13 23:26:00,
2013-08-13 19:47:00,87.0,79.0,29.86,SSW,200,4.0,-999.0,78,-99.99,,,-99.99,,2013-08-13 23:47:00,
2013-08-13 19:57:00,86.0,79.0,29.86,South,173,5.0,-999.0,79,-99.99,,,-99.99,,2013-08-13 23:57:00,
2013-08-13 20:11:00,85.0,78.0,29.86,South,178,4.0,-999.0,80,-99.99,,,-99.99,,2013-08-14 00:11:00,
2013-08-13 20:22:00,85.0,78.0,29.87,SW,220,3.0,-999.0,81,-99.99,,,-99.99,,2013-08-14 00:22:00,
2013-08-13 20:42:00,84.0,78.0,29.87,SE,128,4.0,-999.0,82,-99.99,,,-99.99,,2013-08-14 00:42:00,
2013-08-13 20:52:00,84.0,78.0,29.87,South,170,3.0,-999.0,83,-99.99,,,-99.99,,2013-08-14 00:52:00,
2013-08-13 21:11:00,84.0,78.0,29.87,SE,146,4.0,-999.0,83,-99.99,,,-99.99,,2013-08-14 01:11:00,
2013-08-13 21:21:00,83.0,78.0,29.88,SSW,207,5.0,-999.0,84,-99.99,,,-99.99,,2013-08-14 01:21:00,
2013-08-13 21:42:00,83.0,78.0,29.88,SW,221,3.0,-999.0,85,-99.99,,,-99.99,,2013-08-14 01:42:00,
2013-08-13 21:52:00,83.0,78.0,29.88,SSW,196,3.0,-999.0,85,-99.99,,,-99.99,,2013-08-14 01:52:00,
2013-08-13 22:11:00,83.0,78.0,29.89,SSE,161,4.0,-999.0,85,-99.99,,,-99.99,,2013-08-14 02:11:00,
2013-08-13 22:22:00,83.0,78.0,29.90,South,187,4.0,-999.0,85,-99.99,,,-99.99,,2013-08-14 02:22:00,
2013-08-13 22:42:00,83.0,78.0,29.90,South,171,5.0,-999.0,85,-99.99,,,-99.99,,2013-08-14 02:42:00,
2013-08-13 22:52:00,83.0,78.0,29.90,SSW,213,4.0,-999.0,85,-99.99,,,-99.99,,2013-08-14 02:52:00,
2013-08-13 23:11:00,83.0,78.0,29.90,SSW,198,4.0,-999.0,86,-99.99,,,-99.99,,2013-08-14 03:11:00,
2013-08-13 23:22:00,83.0,78.0,29.90,South,185,3.0,-999.0,86,-99.99,,,-99.99,,2013-08-14 03:22:00,
2013-08-13 23:43:00,83.0,78.0,29.91,SSW,205,5.0,-999.0,86,-99.99,,,-99.99,,2013-08-14 03:43:00,
2013-08-13 23:53:00,83.0,78.0,29.91,SW,220,4.0,-999.0,86,-99.99,,,-99.99,,2013-08-14 03:53:00,